sensor_id;sensor_type;location;lat;lon;timestamp;P1;durP1;ratioP1;P2;durP2;ratioP2
41627;SDS011;27321;50.816;6.054;2023-04-25T00:01:37;4.47;;;2.72;;
41627;SDS011;27321;50.816;6.054;2023-04-25T00:04:38;4.73;;;2.37;;
41627;SDS011;27321;50.816;6.054;2023-04-25T00:07:40;4.20;;;2.20;;
41627;SDS011;27321;50.816;6.054;2023-04-25T00:10:42;6.50;;;2.60;;
41627;SDS011;27321;50.816;6.054;2023-04-25T00:13:43;5.63;;;2.40;;
41627;SDS011;27321;50.816;6.054;2023-04-25T00:16:46;5.03;;;2.20;;
41627;SDS011;27321;50.816;6.054;2023-04-25T00:19:48;4.70;;;2.53;;
41627;SDS011;27321;50.816;6.054;2023-04-25T00:22:50;4.35;;;2.22;;
41627;SDS011;27321;50.816;6.054;2023-04-25T00:25:52;5.13;;;2.53;;
41627;SDS011;27321;50.816;6.054;2023-04-25T00:28:53;8.43;;;2.93;;
41627;SDS011;27321;50.816;6.054;2023-04-25T00:31:57;3.77;;;2.23;;
41627;SDS011;27321;50.816;6.054;2023-04-25T00:34:58;2.63;;;2.30;;
41627;SDS011;27321;50.816;6.054;2023-04-25T00:37:59;6.55;;;2.60;;
41627;SDS011;27321;50.816;6.054;2023-04-25T00:41:01;4.68;;;2.45;;
41627;SDS011;27321;50.816;6.054;2023-04-25T00:44:02;3.77;;;2.33;;
41627;SDS011;27321;50.816;6.054;2023-04-25T00:47:04;6.90;;;2.53;;
41627;SDS011;27321;50.816;6.054;2023-04-25T00:50:06;3.75;;;2.15;;
41627;SDS011;27321;50.816;6.054;2023-04-25T00:53:08;5.47;;;2.73;;
41627;SDS011;27321;50.816;6.054;2023-04-25T00:56:10;5.75;;;3.20;;
41627;SDS011;27321;50.816;6.054;2023-04-25T00:59:11;6.10;;;2.97;;
41627;SDS011;27321;50.816;6.054;2023-04-25T01:02:13;6.63;;;3.30;;
41627;SDS011;27321;50.816;6.054;2023-04-25T01:05:14;3.65;;;2.60;;
41627;SDS011;27321;50.816;6.054;2023-04-25T01:08:16;5.63;;;2.50;;
41627;SDS011;27321;50.816;6.054;2023-04-25T01:11:17;7.35;;;2.83;;
41627;SDS011;27321;50.816;6.054;2023-04-25T01:14:18;6.88;;;3.10;;
41627;SDS011;27321;50.816;6.054;2023-04-25T01:17:19;7.47;;;3.17;;
41627;SDS011;27321;50.816;6.054;2023-04-25T01:23:27;5.63;;;2.87;;
41627;SDS011;27321;50.816;6.054;2023-04-25T01:26:29;7.20;;;2.80;;
41627;SDS011;27321;50.816;6.054;2023-04-25T01:29:31;5.82;;;3.17;;
41627;SDS011;27321;50.816;6.054;2023-04-25T01:32:33;7.80;;;2.73;;
41627;SDS011;27321;50.816;6.054;2023-04-25T01:35:38;7.87;;;2.57;;
41627;SDS011;27321;50.816;6.054;2023-04-25T01:41:41;7.63;;;3.03;;
41627;SDS011;27321;50.816;6.054;2023-04-25T01:44:43;3.80;;;2.40;;
41627;SDS011;27321;50.816;6.054;2023-04-25T01:47:44;8.25;;;2.85;;
41627;SDS011;27321;50.816;6.054;2023-04-25T01:50:49;10.17;;;3.10;;
41627;SDS011;27321;50.816;6.054;2023-04-25T01:53:51;6.10;;;2.57;;
41627;SDS011;27321;50.816;6.054;2023-04-25T01:56:53;9.93;;;3.58;;
41627;SDS011;27321;50.816;6.054;2023-04-25T01:59:58;5.33;;;2.80;;
41627;SDS011;27321;50.816;6.054;2023-04-25T02:03:15;7.00;;;2.80;;
41627;SDS011;27321;50.816;6.054;2023-04-25T02:06:16;7.40;;;3.20;;
41627;SDS011;27321;50.816;6.054;2023-04-25T02:09:19;9.43;;;3.50;;
41627;SDS011;27321;50.816;6.054;2023-04-25T02:12:27;7.03;;;2.83;;
41627;SDS011;27321;50.816;6.054;2023-04-25T02:15:39;7.03;;;3.20;;
41627;SDS011;27321;50.816;6.054;2023-04-25T02:18:48;5.50;;;2.90;;
41627;SDS011;27321;50.816;6.054;2023-04-25T02:21:53;7.67;;;3.00;;
41627;SDS011;27321;50.816;6.054;2023-04-25T02:24:54;9.77;;;3.25;;
41627;SDS011;27321;50.816;6.054;2023-04-25T02:27:55;9.30;;;3.03;;
41627;SDS011;27321;50.816;6.054;2023-04-25T02:30:56;7.67;;;2.97;;
41627;SDS011;27321;50.816;6.054;2023-04-25T02:33:58;6.43;;;2.97;;
41627;SDS011;27321;50.816;6.054;2023-04-25T02:36:59;7.47;;;3.60;;
41627;SDS011;27321;50.816;6.054;2023-04-25T02:40:00;7.90;;;2.80;;
41627;SDS011;27321;50.816;6.054;2023-04-25T02:43:03;6.83;;;3.50;;
41627;SDS011;27321;50.816;6.054;2023-04-25T02:46:04;9.10;;;3.50;;
41627;SDS011;27321;50.816;6.054;2023-04-25T02:49:05;10.90;;;3.53;;
41627;SDS011;27321;50.816;6.054;2023-04-25T02:52:06;6.32;;;2.83;;
41627;SDS011;27321;50.816;6.054;2023-04-25T02:55:07;8.57;;;3.17;;
41627;SDS011;27321;50.816;6.054;2023-04-25T02:58:10;10.77;;;3.30;;
41627;SDS011;27321;50.816;6.054;2023-04-25T03:01:19;8.07;;;3.13;;
41627;SDS011;27321;50.816;6.054;2023-04-25T03:04:20;8.07;;;3.60;;
41627;SDS011;27321;50.816;6.054;2023-04-25T03:07:23;7.87;;;3.20;;
41627;SDS011;27321;50.816;6.054;2023-04-25T03:10:25;9.20;;;3.33;;
41627;SDS011;27321;50.816;6.054;2023-04-25T03:13:27;8.67;;;2.90;;
41627;SDS011;27321;50.816;6.054;2023-04-25T03:16:30;7.27;;;3.20;;
41627;SDS011;27321;50.816;6.054;2023-04-25T03:19:31;7.03;;;3.13;;
41627;SDS011;27321;50.816;6.054;2023-04-25T03:22:32;8.00;;;2.85;;
41627;SDS011;27321;50.816;6.054;2023-04-25T03:25:33;9.03;;;3.40;;
41627;SDS011;27321;50.816;6.054;2023-04-25T03:28:34;8.40;;;2.73;;
41627;SDS011;27321;50.816;6.054;2023-04-25T03:31:35;5.03;;;2.03;;
41627;SDS011;27321;50.816;6.054;2023-04-25T03:34:36;5.13;;;2.55;;
41627;SDS011;27321;50.816;6.054;2023-04-25T03:37:37;7.43;;;2.90;;
41627;SDS011;27321;50.816;6.054;2023-04-25T03:40:38;6.30;;;2.80;;
41627;SDS011;27321;50.816;6.054;2023-04-25T03:43:49;8.90;;;2.63;;
41627;SDS011;27321;50.816;6.054;2023-04-25T03:46:51;9.77;;;2.95;;
41627;SDS011;27321;50.816;6.054;2023-04-25T03:49:52;8.70;;;2.43;;
41627;SDS011;27321;50.816;6.054;2023-04-25T03:52:56;10.47;;;2.57;;
41627;SDS011;27321;50.816;6.054;2023-04-25T03:56:00;7.83;;;2.93;;
41627;SDS011;27321;50.816;6.054;2023-04-25T03:59:01;12.47;;;2.60;;
41627;SDS011;27321;50.816;6.054;2023-04-25T04:02:03;7.83;;;3.10;;
41627;SDS011;27321;50.816;6.054;2023-04-25T04:05:07;10.17;;;3.27;;
41627;SDS011;27321;50.816;6.054;2023-04-25T04:08:11;8.97;;;3.00;;
41627;SDS011;27321;50.816;6.054;2023-04-25T04:11:14;10.10;;;3.53;;
41627;SDS011;27321;50.816;6.054;2023-04-25T04:14:15;7.95;;;3.03;;
41627;SDS011;27321;50.816;6.054;2023-04-25T04:17:19;11.73;;;3.47;;
41627;SDS011;27321;50.816;6.054;2023-04-25T04:20:21;5.63;;;2.42;;
41627;SDS011;27321;50.816;6.054;2023-04-25T04:29:52;12.60;;;2.53;;
41627;SDS011;27321;50.816;6.054;2023-04-25T04:33:13;13.33;;;2.90;;
41627;SDS011;27321;50.816;6.054;2023-04-25T04:36:20;12.60;;;3.30;;
41627;SDS011;27321;50.816;6.054;2023-04-25T04:39:23;8.60;;;3.33;;
41627;SDS011;27321;50.816;6.054;2023-04-25T04:42:39;10.40;;;3.27;;
41627;SDS011;27321;50.816;6.054;2023-04-25T04:46:03;9.27;;;3.57;;
41627;SDS011;27321;50.816;6.054;2023-04-25T04:49:24;6.17;;;2.50;;
41627;SDS011;27321;50.816;6.054;2023-04-25T04:52:54;7.30;;;2.73;;
41627;SDS011;27321;50.816;6.054;2023-04-25T04:56:16;7.67;;;2.50;;
41627;SDS011;27321;50.816;6.054;2023-04-25T04:59:40;12.47;;;3.00;;
41627;SDS011;27321;50.816;6.054;2023-04-25T05:02:52;8.25;;;2.72;;
41627;SDS011;27321;50.816;6.054;2023-04-25T05:06:12;10.70;;;3.43;;
41627;SDS011;27321;50.816;6.054;2023-04-25T05:09:31;10.53;;;3.17;;
41627;SDS011;27321;50.816;6.054;2023-04-25T05:12:53;10.60;;;3.00;;
41627;SDS011;27321;50.816;6.054;2023-04-25T05:16:15;12.40;;;3.38;;
41627;SDS011;27321;50.816;6.054;2023-04-25T05:19:45;7.07;;;3.00;;
41627;SDS011;27321;50.816;6.054;2023-04-25T05:23:05;6.57;;;2.70;;
41627;SDS011;27321;50.816;6.054;2023-04-25T05:26:25;6.70;;;2.90;;
41627;SDS011;27321;50.816;6.054;2023-04-25T05:29:32;6.20;;;2.50;;
41627;SDS011;27321;50.816;6.054;2023-04-25T05:32:39;5.60;;;2.57;;
41627;SDS011;27321;50.816;6.054;2023-04-25T05:35:40;8.05;;;3.40;;
41627;SDS011;27321;50.816;6.054;2023-04-25T05:38:41;11.07;;;3.78;;
41627;SDS011;27321;50.816;6.054;2023-04-25T05:41:55;6.03;;;2.67;;
41627;SDS011;27321;50.816;6.054;2023-04-25T05:45:14;6.60;;;2.70;;
41627;SDS011;27321;50.816;6.054;2023-04-25T05:48:31;7.73;;;3.00;;
41627;SDS011;27321;50.816;6.054;2023-04-25T05:51:37;8.53;;;2.77;;
41627;SDS011;27321;50.816;6.054;2023-04-25T05:55:01;14.70;;;3.23;;
41627;SDS011;27321;50.816;6.054;2023-04-25T05:58:05;8.27;;;3.03;;
41627;SDS011;27321;50.816;6.054;2023-04-25T06:01:07;9.10;;;3.00;;
41627;SDS011;27321;50.816;6.054;2023-04-25T06:04:09;8.57;;;3.05;;
41627;SDS011;27321;50.816;6.054;2023-04-25T06:07:10;8.87;;;2.97;;
41627;SDS011;27321;50.816;6.054;2023-04-25T06:10:11;8.80;;;3.63;;
41627;SDS011;27321;50.816;6.054;2023-04-25T06:13:12;9.48;;;2.95;;
41627;SDS011;27321;50.816;6.054;2023-04-25T06:16:13;8.65;;;3.35;;
41627;SDS011;27321;50.816;6.054;2023-04-25T06:19:14;7.85;;;2.92;;
41627;SDS011;27321;50.816;6.054;2023-04-25T06:22:15;11.10;;;3.13;;
41627;SDS011;27321;50.816;6.054;2023-04-25T06:25:17;8.25;;;2.97;;
41627;SDS011;27321;50.816;6.054;2023-04-25T06:28:18;8.95;;;2.90;;
41627;SDS011;27321;50.816;6.054;2023-04-25T06:31:19;9.75;;;2.47;;
41627;SDS011;27321;50.816;6.054;2023-04-25T06:34:22;7.90;;;2.50;;
41627;SDS011;27321;50.816;6.054;2023-04-25T06:37:23;8.52;;;2.67;;
41627;SDS011;27321;50.816;6.054;2023-04-25T06:40:25;8.07;;;2.30;;
41627;SDS011;27321;50.816;6.054;2023-04-25T06:43:26;5.35;;;2.40;;
41627;SDS011;27321;50.816;6.054;2023-04-25T06:46:40;4.97;;;2.17;;
41627;SDS011;27321;50.816;6.054;2023-04-25T06:49:41;10.83;;;2.47;;
41627;SDS011;27321;50.816;6.054;2023-04-25T06:52:43;7.90;;;2.30;;
41627;SDS011;27321;50.816;6.054;2023-04-25T06:55:44;6.15;;;1.80;;
41627;SDS011;27321;50.816;6.054;2023-04-25T06:58:56;8.63;;;2.20;;
41627;SDS011;27321;50.816;6.054;2023-04-25T07:02:06;7.20;;;2.07;;
41627;SDS011;27321;50.816;6.054;2023-04-25T07:05:08;7.53;;;2.50;;
41627;SDS011;27321;50.816;6.054;2023-04-25T07:08:09;6.93;;;2.30;;
41627;SDS011;27321;50.816;6.054;2023-04-25T07:11:10;5.68;;;1.98;;
41627;SDS011;27321;50.816;6.054;2023-04-25T07:14:11;11.27;;;2.50;;
41627;SDS011;27321;50.816;6.054;2023-04-25T07:17:12;5.70;;;2.30;;
41627;SDS011;27321;50.816;6.054;2023-04-25T07:20:13;5.53;;;2.10;;
41627;SDS011;27321;50.816;6.054;2023-04-25T07:23:15;8.18;;;2.50;;
41627;SDS011;27321;50.816;6.054;2023-04-25T07:26:16;6.60;;;2.88;;
41627;SDS011;27321;50.816;6.054;2023-04-25T07:29:37;9.87;;;2.37;;
41627;SDS011;27321;50.816;6.054;2023-04-25T07:32:38;7.55;;;2.45;;
41627;SDS011;27321;50.816;6.054;2023-04-25T07:35:39;9.05;;;2.90;;
41627;SDS011;27321;50.816;6.054;2023-04-25T07:38:41;5.25;;;2.15;;
41627;SDS011;27321;50.816;6.054;2023-04-25T07:41:42;14.23;;;3.03;;
41627;SDS011;27321;50.816;6.054;2023-04-25T07:44:48;10.50;;;2.70;;
41627;SDS011;27321;50.816;6.054;2023-04-25T07:47:49;7.30;;;2.67;;
41627;SDS011;27321;50.816;6.054;2023-04-25T07:50:50;7.15;;;2.42;;
41627;SDS011;27321;50.816;6.054;2023-04-25T07:53:52;6.82;;;2.00;;
41627;SDS011;27321;50.816;6.054;2023-04-25T07:56:54;6.40;;;1.80;;
41627;SDS011;27321;50.816;6.054;2023-04-25T08:00:00;4.93;;;2.20;;
41627;SDS011;27321;50.816;6.054;2023-04-25T08:03:03;6.80;;;1.90;;
41627;SDS011;27321;50.816;6.054;2023-04-25T08:06:04;8.43;;;2.25;;
41627;SDS011;27321;50.816;6.054;2023-04-25T08:09:09;4.83;;;2.00;;
41627;SDS011;27321;50.816;6.054;2023-04-25T08:12:13;6.03;;;1.87;;
41627;SDS011;27321;50.816;6.054;2023-04-25T08:15:14;5.40;;;1.70;;
41627;SDS011;27321;50.816;6.054;2023-04-25T08:18:16;6.50;;;1.63;;
41627;SDS011;27321;50.816;6.054;2023-04-25T08:21:18;7.97;;;2.20;;
41627;SDS011;27321;50.816;6.054;2023-04-25T08:27:21;5.53;;;1.67;;
41627;SDS011;27321;50.816;6.054;2023-04-25T08:30:25;5.20;;;1.30;;
41627;SDS011;27321;50.816;6.054;2023-04-25T08:33:27;6.13;;;1.83;;
41627;SDS011;27321;50.816;6.054;2023-04-25T08:36:43;5.40;;;1.73;;
41627;SDS011;27321;50.816;6.054;2023-04-25T08:40:07;3.57;;;1.40;;
41627;SDS011;27321;50.816;6.054;2023-04-25T08:43:28;4.07;;;1.37;;
41627;SDS011;27321;50.816;6.054;2023-04-25T08:46:33;9.40;;;2.17;;
41627;SDS011;27321;50.816;6.054;2023-04-25T08:49:54;7.03;;;1.80;;
41627;SDS011;27321;50.816;6.054;2023-04-25T08:52:56;6.07;;;1.60;;
41627;SDS011;27321;50.816;6.054;2023-04-25T08:56:02;7.17;;;1.40;;
41627;SDS011;27321;50.816;6.054;2023-04-25T08:59:07;4.07;;;1.50;;
41627;SDS011;27321;50.816;6.054;2023-04-25T09:02:11;8.20;;;1.93;;
41627;SDS011;27321;50.816;6.054;2023-04-25T09:05:16;3.90;;;1.67;;
41627;SDS011;27321;50.816;6.054;2023-04-25T09:08:18;4.80;;;1.50;;
41627;SDS011;27321;50.816;6.054;2023-04-25T09:11:19;5.60;;;1.63;;
41627;SDS011;27321;50.816;6.054;2023-04-25T09:14:23;6.82;;;1.80;;
41627;SDS011;27321;50.816;6.054;2023-04-25T09:17:38;3.87;;;1.50;;
41627;SDS011;27321;50.816;6.054;2023-04-25T09:20:45;4.10;;;1.70;;
41627;SDS011;27321;50.816;6.054;2023-04-25T09:23:48;3.53;;;1.30;;
41627;SDS011;27321;50.816;6.054;2023-04-25T09:26:52;4.77;;;1.47;;
41627;SDS011;27321;50.816;6.054;2023-04-25T09:29:57;3.10;;;1.73;;
41627;SDS011;27321;50.816;6.054;2023-04-25T09:33:11;4.53;;;1.53;;
41627;SDS011;27321;50.816;6.054;2023-04-25T09:36:16;6.13;;;2.03;;
41627;SDS011;27321;50.816;6.054;2023-04-25T09:39:37;6.25;;;1.70;;
41627;SDS011;27321;50.816;6.054;2023-04-25T09:42:46;7.83;;;2.13;;
41627;SDS011;27321;50.816;6.054;2023-04-25T09:45:48;6.35;;;2.08;;
41627;SDS011;27321;50.816;6.054;2023-04-25T09:48:51;3.63;;;1.43;;
41627;SDS011;27321;50.816;6.054;2023-04-25T09:52:01;5.13;;;1.70;;
41627;SDS011;27321;50.816;6.054;2023-04-25T09:55:12;7.00;;;1.60;;
41627;SDS011;27321;50.816;6.054;2023-04-25T09:58:13;6.88;;;1.73;;
41627;SDS011;27321;50.816;6.054;2023-04-25T10:01:15;5.32;;;1.73;;
41627;SDS011;27321;50.816;6.054;2023-04-25T10:04:34;6.60;;;1.70;;
41627;SDS011;27321;50.816;6.054;2023-04-25T10:07:39;5.73;;;1.87;;
41627;SDS011;27321;50.816;6.054;2023-04-25T10:10:50;6.17;;;1.90;;
41627;SDS011;27321;50.816;6.054;2023-04-25T10:13:51;5.57;;;1.90;;
41627;SDS011;27321;50.816;6.054;2023-04-25T10:16:53;3.67;;;1.50;;
41627;SDS011;27321;50.816;6.054;2023-04-25T10:19:55;5.43;;;2.10;;
41627;SDS011;27321;50.816;6.054;2023-04-25T10:22:58;5.57;;;1.73;;
41627;SDS011;27321;50.816;6.054;2023-04-25T10:26:09;4.57;;;1.53;;
41627;SDS011;27321;50.816;6.054;2023-04-25T10:29:12;5.25;;;1.83;;
41627;SDS011;27321;50.816;6.054;2023-04-25T10:32:25;4.67;;;2.27;;
41627;SDS011;27321;50.816;6.054;2023-04-25T10:35:27;6.67;;;2.33;;
41627;SDS011;27321;50.816;6.054;2023-04-25T10:38:34;5.28;;;1.50;;
41627;SDS011;27321;50.816;6.054;2023-04-25T10:41:46;6.83;;;1.50;;
41627;SDS011;27321;50.816;6.054;2023-04-25T10:45:04;7.17;;;1.83;;
41627;SDS011;27321;50.816;6.054;2023-04-25T10:48:24;8.80;;;2.40;;
41627;SDS011;27321;50.816;6.054;2023-04-25T10:51:31;7.53;;;2.10;;
41627;SDS011;27321;50.816;6.054;2023-04-25T10:54:34;3.13;;;1.70;;
41627;SDS011;27321;50.816;6.054;2023-04-25T10:57:41;7.00;;;2.30;;
41627;SDS011;27321;50.816;6.054;2023-04-25T11:00:46;6.65;;;2.50;;
41627;SDS011;27321;50.816;6.054;2023-04-25T11:03:47;3.80;;;1.60;;
41627;SDS011;27321;50.816;6.054;2023-04-25T11:10:06;3.57;;;1.77;;
41627;SDS011;27321;50.816;6.054;2023-04-25T11:16:08;4.57;;;1.70;;
41627;SDS011;27321;50.816;6.054;2023-04-25T11:19:10;5.75;;;1.85;;
41627;SDS011;27321;50.816;6.054;2023-04-25T11:22:11;5.57;;;2.40;;
41627;SDS011;27321;50.816;6.054;2023-04-25T11:25:13;6.07;;;1.98;;
41627;SDS011;27321;50.816;6.054;2023-04-25T11:28:20;3.07;;;1.50;;
41627;SDS011;27321;50.816;6.054;2023-04-25T11:31:24;6.70;;;2.10;;
41627;SDS011;27321;50.816;6.054;2023-04-25T11:34:29;3.80;;;1.83;;
41627;SDS011;27321;50.816;6.054;2023-04-25T11:37:32;5.70;;;1.50;;
41627;SDS011;27321;50.816;6.054;2023-04-25T11:40:35;4.20;;;1.70;;
41627;SDS011;27321;50.816;6.054;2023-04-25T11:43:36;4.27;;;1.90;;
41627;SDS011;27321;50.816;6.054;2023-04-25T11:46:37;5.13;;;2.00;;
41627;SDS011;27321;50.816;6.054;2023-04-25T11:49:38;6.23;;;1.60;;
41627;SDS011;27321;50.816;6.054;2023-04-25T11:52:45;6.57;;;1.88;;
41627;SDS011;27321;50.816;6.054;2023-04-25T11:55:48;6.37;;;1.60;;
41627;SDS011;27321;50.816;6.054;2023-04-25T12:01:56;6.83;;;3.73;;
41627;SDS011;27321;50.816;6.054;2023-04-25T12:04:59;8.70;;;2.00;;
41627;SDS011;27321;50.816;6.054;2023-04-25T12:08:09;2.23;;;1.00;;
41627;SDS011;27321;50.816;6.054;2023-04-25T12:11:21;3.27;;;1.00;;
41627;SDS011;27321;50.816;6.054;2023-04-25T12:14:23;1.83;;;0.93;;
41627;SDS011;27321;50.816;6.054;2023-04-25T12:17:30;2.60;;;0.70;;
41627;SDS011;27321;50.816;6.054;2023-04-25T12:20:31;2.83;;;1.10;;
41627;SDS011;27321;50.816;6.054;2023-04-25T12:23:32;2.92;;;1.30;;
41627;SDS011;27321;50.816;6.054;2023-04-25T12:26:53;3.90;;;1.27;;
41627;SDS011;27321;50.816;6.054;2023-04-25T12:29:59;1.83;;;0.90;;
41627;SDS011;27321;50.816;6.054;2023-04-25T12:33:00;2.83;;;1.55;;
41627;SDS011;27321;50.816;6.054;2023-04-25T12:36:02;3.83;;;1.10;;
41627;SDS011;27321;50.816;6.054;2023-04-25T12:39:08;3.95;;;1.90;;
41627;SDS011;27321;50.816;6.054;2023-04-25T12:42:19;4.60;;;1.60;;
41627;SDS011;27321;50.816;6.054;2023-04-25T12:45:20;5.68;;;1.60;;
41627;SDS011;27321;50.816;6.054;2023-04-25T12:48:21;4.38;;;1.50;;
41627;SDS011;27321;50.816;6.054;2023-04-25T12:51:23;2.95;;;1.42;;
41627;SDS011;27321;50.816;6.054;2023-04-25T12:54:25;4.00;;;1.58;;
41627;SDS011;27321;50.816;6.054;2023-04-25T12:57:26;1.80;;;1.13;;
41627;SDS011;27321;50.816;6.054;2023-04-25T13:00:27;4.40;;;1.70;;
41627;SDS011;27321;50.816;6.054;2023-04-25T13:03:28;2.58;;;1.40;;
41627;SDS011;27321;50.816;6.054;2023-04-25T13:06:29;2.63;;;1.35;;
41627;SDS011;27321;50.816;6.054;2023-04-25T13:09:32;4.57;;;1.50;;
41627;SDS011;27321;50.816;6.054;2023-04-25T13:12:33;3.83;;;1.52;;
41627;SDS011;27321;50.816;6.054;2023-04-25T13:15:34;3.92;;;1.45;;
41627;SDS011;27321;50.816;6.054;2023-04-25T13:18:35;3.50;;;1.38;;
41627;SDS011;27321;50.816;6.054;2023-04-25T13:21:37;1.92;;;1.17;;
41627;SDS011;27321;50.816;6.054;2023-04-25T13:24:38;4.60;;;1.33;;
41627;SDS011;27321;50.816;6.054;2023-04-25T13:27:38;4.70;;;1.52;;
41627;SDS011;27321;50.816;6.054;2023-04-25T13:30:40;2.65;;;1.25;;
41627;SDS011;27321;50.816;6.054;2023-04-25T13:33:42;2.53;;;1.15;;
41627;SDS011;27321;50.816;6.054;2023-04-25T13:36:44;4.40;;;1.50;;
41627;SDS011;27321;50.816;6.054;2023-04-25T13:39:45;4.35;;;1.13;;
41627;SDS011;27321;50.816;6.054;2023-04-25T13:42:46;5.18;;;1.35;;
41627;SDS011;27321;50.816;6.054;2023-04-25T13:45:48;2.63;;;1.25;;
41627;SDS011;27321;50.816;6.054;2023-04-25T13:48:50;3.63;;;1.37;;
41627;SDS011;27321;50.816;6.054;2023-04-25T13:51:50;6.13;;;1.80;;
41627;SDS011;27321;50.816;6.054;2023-04-25T13:54:51;3.73;;;1.37;;
41627;SDS011;27321;50.816;6.054;2023-04-25T13:57:52;3.77;;;1.40;;
41627;SDS011;27321;50.816;6.054;2023-04-25T14:00:53;4.43;;;1.63;;
41627;SDS011;27321;50.816;6.054;2023-04-25T14:03:54;3.03;;;1.10;;
41627;SDS011;27321;50.816;6.054;2023-04-25T14:06:55;1.77;;;0.93;;
41627;SDS011;27321;50.816;6.054;2023-04-25T14:09:56;2.08;;;1.00;;
41627;SDS011;27321;50.816;6.054;2023-04-25T14:12:58;2.97;;;1.42;;
41627;SDS011;27321;50.816;6.054;2023-04-25T14:15:59;5.72;;;1.25;;
41627;SDS011;27321;50.816;6.054;2023-04-25T14:19:00;3.22;;;1.20;;
41627;SDS011;27321;50.816;6.054;2023-04-25T14:22:01;4.88;;;1.30;;
41627;SDS011;27321;50.816;6.054;2023-04-25T14:25:02;3.35;;;1.60;;
41627;SDS011;27321;50.816;6.054;2023-04-25T14:28:03;2.78;;;1.42;;
41627;SDS011;27321;50.816;6.054;2023-04-25T14:31:05;5.68;;;1.63;;
41627;SDS011;27321;50.816;6.054;2023-04-25T14:34:06;2.47;;;1.35;;
41627;SDS011;27321;50.816;6.054;2023-04-25T14:37:07;3.47;;;1.60;;
41627;SDS011;27321;50.816;6.054;2023-04-25T14:40:09;2.28;;;1.40;;
41627;SDS011;27321;50.816;6.054;2023-04-25T14:43:10;4.53;;;1.70;;
41627;SDS011;27321;50.816;6.054;2023-04-25T14:46:11;3.20;;;1.70;;
41627;SDS011;27321;50.816;6.054;2023-04-25T14:49:12;3.33;;;1.25;;
41627;SDS011;27321;50.816;6.054;2023-04-25T14:52:13;3.97;;;1.30;;
41627;SDS011;27321;50.816;6.054;2023-04-25T14:55:14;7.67;;;1.83;;
41627;SDS011;27321;50.816;6.054;2023-04-25T14:58:15;2.03;;;1.20;;
41627;SDS011;27321;50.816;6.054;2023-04-25T15:01:16;2.92;;;1.42;;
41627;SDS011;27321;50.816;6.054;2023-04-25T15:04:18;3.92;;;1.60;;
41627;SDS011;27321;50.816;6.054;2023-04-25T15:07:19;5.13;;;1.50;;
41627;SDS011;27321;50.816;6.054;2023-04-25T15:10:20;4.57;;;1.40;;
41627;SDS011;27321;50.816;6.054;2023-04-25T15:13:22;3.90;;;1.17;;
41627;SDS011;27321;50.816;6.054;2023-04-25T15:16:23;3.17;;;1.17;;
41627;SDS011;27321;50.816;6.054;2023-04-25T15:19:24;3.80;;;1.27;;
41627;SDS011;27321;50.816;6.054;2023-04-25T15:22:28;3.00;;;1.13;;
41627;SDS011;27321;50.816;6.054;2023-04-25T15:25:29;3.90;;;1.40;;
41627;SDS011;27321;50.816;6.054;2023-04-25T15:28:33;2.27;;;1.27;;
41627;SDS011;27321;50.816;6.054;2023-04-25T15:31:34;3.63;;;1.20;;
41627;SDS011;27321;50.816;6.054;2023-04-25T15:34:35;2.63;;;1.10;;
41627;SDS011;27321;50.816;6.054;2023-04-25T15:37:36;3.30;;;1.20;;
41627;SDS011;27321;50.816;6.054;2023-04-25T15:40:38;3.57;;;1.10;;
41627;SDS011;27321;50.816;6.054;2023-04-25T15:46:40;2.63;;;1.00;;
41627;SDS011;27321;50.816;6.054;2023-04-25T15:49:43;2.37;;;0.83;;
41627;SDS011;27321;50.816;6.054;2023-04-25T15:52:44;1.88;;;1.13;;
41627;SDS011;27321;50.816;6.054;2023-04-25T15:55:45;3.05;;;1.33;;
41627;SDS011;27321;50.816;6.054;2023-04-25T15:58:47;5.03;;;1.15;;
41627;SDS011;27321;50.816;6.054;2023-04-25T16:01:48;4.60;;;1.00;;
41627;SDS011;27321;50.816;6.054;2023-04-25T16:04:49;2.80;;;1.13;;
41627;SDS011;27321;50.816;6.054;2023-04-25T16:07:50;1.40;;;0.88;;
41627;SDS011;27321;50.816;6.054;2023-04-25T16:10:53;2.23;;;0.90;;
41627;SDS011;27321;50.816;6.054;2023-04-25T16:13:53;6.20;;;1.10;;
41627;SDS011;27321;50.816;6.054;2023-04-25T16:16:54;1.55;;;0.90;;
41627;SDS011;27321;50.816;6.054;2023-04-25T16:19:56;2.92;;;0.88;;
41627;SDS011;27321;50.816;6.054;2023-04-25T16:22:58;2.00;;;0.63;;
41627;SDS011;27321;50.816;6.054;2023-04-25T16:25:59;1.50;;;0.85;;
41627;SDS011;27321;50.816;6.054;2023-04-25T16:29:03;3.47;;;1.00;;
41627;SDS011;27321;50.816;6.054;2023-04-25T16:32:05;3.03;;;1.10;;
41627;SDS011;27321;50.816;6.054;2023-04-25T16:35:07;2.95;;;0.93;;
41627;SDS011;27321;50.816;6.054;2023-04-25T16:38:08;5.32;;;1.00;;
41627;SDS011;27321;50.816;6.054;2023-04-25T16:41:10;2.55;;;0.90;;
41627;SDS011;27321;50.816;6.054;2023-04-25T16:44:12;4.50;;;1.43;;
41627;SDS011;27321;50.816;6.054;2023-04-25T16:47:13;2.65;;;0.90;;
41627;SDS011;27321;50.816;6.054;2023-04-25T16:50:15;3.40;;;1.13;;
41627;SDS011;27321;50.816;6.054;2023-04-25T16:53:18;2.43;;;0.97;;
41627;SDS011;27321;50.816;6.054;2023-04-25T16:56:21;3.37;;;1.03;;
41627;SDS011;27321;50.816;6.054;2023-04-25T16:59:24;3.13;;;1.10;;
41627;SDS011;27321;50.816;6.054;2023-04-25T17:02:25;4.20;;;1.27;;
41627;SDS011;27321;50.816;6.054;2023-04-25T17:05:26;1.88;;;1.10;;
41627;SDS011;27321;50.816;6.054;2023-04-25T17:08:27;3.70;;;0.98;;
41627;SDS011;27321;50.816;6.054;2023-04-25T17:11:28;2.58;;;1.23;;
41627;SDS011;27321;50.816;6.054;2023-04-25T17:14:29;5.57;;;1.23;;
41627;SDS011;27321;50.816;6.054;2023-04-25T17:17:32;3.87;;;1.13;;
41627;SDS011;27321;50.816;6.054;2023-04-25T17:20:33;3.80;;;1.15;;
41627;SDS011;27321;50.816;6.054;2023-04-25T17:23:34;1.50;;;1.10;;
41627;SDS011;27321;50.816;6.054;2023-04-25T17:26:35;3.65;;;0.90;;
41627;SDS011;27321;50.816;6.054;2023-04-25T17:29:36;3.10;;;1.23;;
41627;SDS011;27321;50.816;6.054;2023-04-25T17:32:37;3.10;;;1.10;;
41627;SDS011;27321;50.816;6.054;2023-04-25T17:35:38;3.22;;;0.80;;
41627;SDS011;27321;50.816;6.054;2023-04-25T17:38:39;1.42;;;0.80;;
41627;SDS011;27321;50.816;6.054;2023-04-25T17:41:40;2.95;;;1.20;;
41627;SDS011;27321;50.816;6.054;2023-04-25T17:44:42;4.65;;;1.50;;
41627;SDS011;27321;50.816;6.054;2023-04-25T17:47:43;3.95;;;1.48;;
41627;SDS011;27321;50.816;6.054;2023-04-25T17:50:44;3.22;;;1.13;;
41627;SDS011;27321;50.816;6.054;2023-04-25T17:53:45;2.42;;;0.95;;
41627;SDS011;27321;50.816;6.054;2023-04-25T17:56:47;2.30;;;1.38;;
41627;SDS011;27321;50.816;6.054;2023-04-25T17:59:48;6.00;;;2.83;;
41627;SDS011;27321;50.816;6.054;2023-04-25T18:02:48;4.47;;;1.90;;
41627;SDS011;27321;50.816;6.054;2023-04-25T18:05:51;1.73;;;1.43;;
41627;SDS011;27321;50.816;6.054;2023-04-25T18:08:52;2.67;;;1.20;;
41627;SDS011;27321;50.816;6.054;2023-04-25T18:11:54;4.47;;;1.50;;
41627;SDS011;27321;50.816;6.054;2023-04-25T18:14:55;3.15;;;1.13;;
41627;SDS011;27321;50.816;6.054;2023-04-25T18:17:56;2.97;;;1.17;;
41627;SDS011;27321;50.816;6.054;2023-04-25T18:20:58;4.03;;;1.25;;
41627;SDS011;27321;50.816;6.054;2023-04-25T18:24:00;2.40;;;1.10;;
41627;SDS011;27321;50.816;6.054;2023-04-25T18:27:01;5.53;;;1.30;;
41627;SDS011;27321;50.816;6.054;2023-04-25T18:30:05;5.97;;;1.13;;
41627;SDS011;27321;50.816;6.054;2023-04-25T18:33:09;2.17;;;0.73;;
41627;SDS011;27321;50.816;6.054;2023-04-25T18:36:10;4.07;;;1.60;;
41627;SDS011;27321;50.816;6.054;2023-04-25T18:39:12;3.30;;;1.58;;
41627;SDS011;27321;50.816;6.054;2023-04-25T18:42:13;5.15;;;1.15;;
41627;SDS011;27321;50.816;6.054;2023-04-25T18:48:16;2.53;;;1.20;;
41627;SDS011;27321;50.816;6.054;2023-04-25T18:51:17;5.03;;;1.20;;
41627;SDS011;27321;50.816;6.054;2023-04-25T18:54:23;3.33;;;1.20;;
41627;SDS011;27321;50.816;6.054;2023-04-25T18:57:24;2.58;;;1.25;;
41627;SDS011;27321;50.816;6.054;2023-04-25T19:00:25;2.65;;;0.93;;